METAR AND TAF INFORMATION
METAR FOR UUOB
ADDS - METARS form results

(0506 UTC 18 September 2021)
Data provider http://aviationweather.gov/metar/data/
 
METAR text: UUOB 180500Z 09008MPS CAVOK 12/06 Q1013 R11/010060 NOSIG
Conditions at: UUOB (BELGOROD , RU) observed 0500 UTC 18 September 2021
Temperature: 12.0°C (54°F)
Dewpoint: 6.0°C (43°F) [RH = 67%]
Pressure (altimeter): 29.91 inches Hg (1013.0 mb)
Winds: from the E (90 degrees) at 18 MPH (16 knots; 8.2 m/s)
Visibility: 6 or more miles (10+ km)
Ceiling: ceiling and visibility are OK
Clouds: unknown
Weather: no significant weather observed at this time

METAR text: UUOB 180430Z 09007MPS CAVOK 12/07 Q1013 R11/010060 NOSIG
Conditions at: UUOB (BELGOROD , RU) observed 0430 UTC 18 September 2021
Temperature: 12.0°C (54°F)
Dewpoint: 7.0°C (45°F) [RH = 71%]
Pressure (altimeter): 29.91 inches Hg (1013.0 mb)
Winds: from the E (90 degrees) at 16 MPH (14 knots; 7.2 m/s)
Visibility: 6 or more miles (10+ km)
Ceiling: ceiling and visibility are OK
Clouds: unknown
Weather: no significant weather observed at this time

Forecast for: UUOB (BELGOROD , RU)
Text: TAF UUOB 180200Z 1803/1812 09006MPS 9999 BKN030
Forecast period: 0300 to 1200 UTC 18 September 2021
Forecast type: FROM: standard forecast or significant change
Winds: from the E (90 degrees) at 14 MPH (12 knots; 6.2 m/s)
Visibility: 6 or more miles (10+ km)
Ceiling: 3000 feet AGL
Clouds: broken clouds at 3000 feet AGL
Weather: no significant weather forecast for this period
Text: TEMPO 1803/1812 4000 -SHRA BKN016CB
Forecast period: 0300 to 1200 UTC 18 September 2021
Forecast type: TEMPORARY: The following changes expected for less than half the time period
Visibility: 2.49 miles (4.01 km)
Ceiling: 1600 feet AGL
Clouds: broken clouds at 1600 feet AGL
Weather: -SHRA  (light rain showers)

 AIRPORT MAP

 RUNWAY INFORMATION
Runway 11 Runway length 7546 ft Runway width 138 ft
Runway elevation 735 ft Runway displaced threshold 0 ft Runway heading 117
Runway 29 Runway length 7546 ft Runway width 138 ft
Runway elevation 702 ft Runway displaced threshold 0 ft Runway heading 297
Runway 12 Runway length 7930 ft Runway width 220 ft
Runway elevation 0 ft Runway displaced threshold 0 ft Runway heading 117
Runway 30 Runway length 7930 ft Runway width 220 ft
Runway elevation 0 ft Runway displaced threshold 0 ft Runway heading 297

 AIRPORT FREQUENCIES
Type APP Name APP Frequency 133 MHZ
Type GND Name TAXIING Frequency 121.7 MHZ
Type TWR Name TWR Frequency 118.2 MHZ

 AIRPORT NEAR NAVIGATION AIDS
Type NDB Name Belgorod Frequency 718 KHZ
Type NDB Name Belgorod Frequency 718 KHZ



Powered by Virtual Airlines Manager [v2.6.2]